Eastwood, Ohio
Current Conditions -  °F | °C
As of 10:53 AM on Friday 21 Nov 2014 (Local Time) from KLUK Reporting Station
Clear Clear  
Wind Chill: 19°   Ceiling: Unl
Heat Index: 27°   Visibility: 10mi
Dew Point: 11°   Wind: 7mph
Humidity: 51%   Direction: 30°NNE
Pressure: 30.56"   Gusts: NA
Location:  39.088°N, 84.0217°W
Report Text: KLUK 211553Z 03006KT 10SM CLR M03/M12 A3056 RMK AO2 SLP355 T10281117
Loading
Personal Weather Stations






























Interactive Weather Map New forecast layout! Learn more

10-Day Weather Forecast

Advertisements
Track Severe Weather on mobile